Time;durP1;ratioP1;P1;durP2;ratioP2;P2;SDS_P1;SDS_P2;PMS_P1;PMS_P2;Temp;Humidity;BMP_temperature;BMP_pressure;BME280_temperature;BME280_humidity;BME280_pressure;Samples;Min_cycle;Max_cycle;Signal;HPM_P1;HPM_P2
2021/01/08 00:01:59;;;;;;;9.40;5.47;;;;;;;3.33;51.08;100752.69;4990245;28;20050;-75
2021/01/08 00:04:27;;;;;;;10.98;7.03;;;;;;;3.32;51.11;100742.81;4989611;28;20163;-75
2021/01/08 00:06:57;;;;;;;11.80;6.45;;;;;;;3.35;51.17;100750.75;4991069;28;20046;-76
2021/01/08 00:09:25;;;;;;;11.00;6.50;;;;;;;3.32;50.93;100749.09;4989446;28;20054;-75
2021/01/08 00:11:55;;;;;;;10.18;6.47;;;;;;;3.33;51.13;100750.84;4991791;28;20050;-76
2021/01/08 00:14:23;;;;;;;9.60;5.57;;;;;;;3.31;50.90;100749.19;4989422;28;20421;-75
2021/01/08 00:16:50;;;;;;;10.77;5.97;;;;;;;3.30;51.18;100740.19;4990819;28;20042;-75
2021/01/08 00:19:17;;;;;;;10.15;5.88;;;;;;;3.30;51.10;100748.31;4988477;28;20050;-75
2021/01/08 00:21:45;;;;;;;10.38;6.50;;;;;;;3.29;50.99;100740.28;4984899;28;20046;-75
2021/01/08 00:24:13;;;;;;;11.32;6.47;;;;;;;3.29;51.24;100740.28;4981943;28;20074;-76
2021/01/08 00:26:42;;;;;;;11.55;6.85;;;;;;;3.29;51.06;100751.09;4986483;28;20053;-74
2021/01/08 00:29:11;;;;;;;10.02;5.65;;;;;;;3.29;51.11;100748.41;4994211;28;20402;-74
2021/01/08 00:31:39;;;;;;;11.55;5.85;;;;;;;3.29;51.01;100745.69;4989219;28;20039;-75
2021/01/08 00:34:08;;;;;;;9.48;5.97;;;;;;;3.27;51.21;100747.63;4989932;28;20513;-75
2021/01/08 00:36:36;;;;;;;9.93;5.35;;;;;;;3.27;51.03;100742.22;4990085;28;20045;-75
2021/01/08 00:39:05;;;;;;;9.45;5.63;;;;;;;3.27;51.03;100742.22;4984815;28;20129;-74
2021/01/08 00:41:34;;;;;;;7.80;4.78;;;;;;;3.26;51.06;100746.75;4984369;28;20038;-73
2021/01/08 00:44:02;;;;;;;8.55;5.18;;;;;;;3.26;51.31;100746.75;4988799;28;20285;-73
2021/01/08 00:46:32;;;;;;;8.73;5.40;;;;;;;3.26;51.20;100743.19;4990739;28;20045;-75
2021/01/08 00:49:02;;;;;;;9.35;5.95;;;;;;;3.26;51.35;100745.88;4987861;28;20465;-75
2021/01/08 00:51:31;;;;;;;10.00;5.95;;;;;;;3.24;51.09;100743.25;4991402;28;20574;-75
2021/01/08 00:53:59;;;;;;;10.30;6.05;;;;;;;3.23;50.84;100738.81;4980872;28;20564;-74
2021/01/08 00:56:30;;;;;;;10.60;5.50;;;;;;;3.23;50.88;100741.53;4983703;28;20046;-74
2021/01/08 00:59:11;;;;;;;10.52;5.82;;;;;;;3.23;50.96;100752.34;4988034;28;20467;-75
2021/01/08 01:01:38;;;;;;;9.73;5.82;;;;;;;3.20;50.89;100741.72;4987463;28;20134;-75
2021/01/08 01:04:05;;;;;;;8.45;5.32;;;;;;;3.21;51.03;100745.25;4990412;28;20133;-75
2021/01/08 01:06:35;;;;;;;9.82;5.68;;;;;;;3.21;51.03;100742.56;4990897;28;20046;-74
2021/01/08 01:09:04;;;;;;;9.45;5.35;;;;;;;3.20;51.11;100738.13;4987835;28;20100;-75
2021/01/08 01:11:31;;;;;;;10.05;5.82;;;;;;;3.19;50.95;100739.09;4989638;28;20039;-75
2021/01/08 01:13:59;;;;;;;8.45;5.13;;;;;;;3.19;51.11;100750.78;4982233;28;20070;-75
2021/01/08 01:16:28;;;;;;;9.57;5.50;;;;;;;3.18;50.91;100743.63;4987990;28;20611;-74
2021/01/08 01:18:58;;;;;;;10.07;5.72;;;;;;;3.17;51.06;100743.72;4988020;28;20371;-74
2021/01/08 01:21:52;;;;;;;11.50;6.00;;;;;;;3.16;51.07;100747.38;4984533;28;20081;-74
2021/01/08 01:24:19;;;;;;;11.40;6.25;;;;;;;3.12;51.24;100746.69;4989695;28;20054;-73
2021/01/08 01:26:46;;;;;;;9.93;6.22;;;;;;;3.14;51.08;100750.16;4989328;28;20046;-74
2021/01/08 01:29:13;;;;;;;9.20;5.78;;;;;;;3.15;50.94;100746.50;4988412;28;20516;-74
2021/01/08 01:31:41;;;;;;;10.77;6.38;;;;;;;3.15;51.05;100753.72;4994432;28;20042;-72
2021/01/08 01:34:11;;;;;;;10.85;5.93;;;;;;;3.12;51.19;100749.41;4983383;28;20062;-75
2021/01/08 01:36:39;;;;;;;11.18;6.78;;;;;;;3.12;51.07;100748.53;4998576;28;20378;-73
2021/01/08 01:39:06;;;;;;;10.13;5.15;;;;;;;3.11;51.26;100755.75;4988642;28;20053;-74
2021/01/08 01:41:34;;;;;;;10.77;6.25;;;;;;;3.11;51.09;100753.06;4994461;28;20076;-74
2021/01/08 01:44:01;;;;;;;9.65;5.18;;;;;;;3.11;50.86;100754.88;4975767;28;20505;-74
2021/01/08 01:46:29;;;;;;;11.10;6.72;;;;;;;3.10;51.42;100754.00;4988852;28;20039;-73
2021/01/08 01:48:57;;;;;;;9.27;5.50;;;;;;;3.11;51.10;100763.00;4993715;28;20129;-74
2021/01/08 01:51:27;;;;;;;10.00;5.38;;;;;;;3.11;51.15;100757.59;4993789;28;20398;-74
2021/01/08 01:53:54;;;;;;;11.82;6.68;;;;;;;3.10;51.27;100764.81;4992094;28;20476;-73
2021/01/08 01:56:22;;;;;;;10.95;5.90;;;;;;;3.09;51.34;100754.09;4992788;28;20065;-74
2021/01/08 01:58:51;;;;;;;11.43;6.45;;;;;;;3.11;51.25;100763.00;4992135;28;20042;-74
2021/01/08 02:01:19;;;;;;;10.60;6.28;;;;;;;3.09;51.18;100768.47;5001553;28;20484;-74
2021/01/08 02:03:49;;;;;;;10.18;6.10;;;;;;;3.10;51.31;100761.25;4993791;28;20501;-74
2021/01/08 02:06:20;;;;;;;8.52;4.93;;;;;;;3.10;51.41;100766.66;4982762;28;20036;-74
2021/01/08 02:08:51;;;;;;;9.35;5.97;;;;;;;3.09;51.15;100770.31;4991383;28;20046;-74
2021/01/08 02:11:26;;;;;;;10.07;5.47;;;;;;;3.10;51.06;100775.63;4992612;28;20137;-74
2021/01/08 02:13:59;;;;;;;10.20;5.60;;;;;;;3.09;51.36;100765.78;4984162;28;20175;-74
2021/01/08 02:16:30;;;;;;;9.10;5.35;;;;;;;3.11;51.35;100773.81;5006707;28;20150;-75
2021/01/08 02:18:59;;;;;;;10.32;5.95;;;;;;;3.09;51.38;100773.88;4989948;28;20038;-73
2021/01/08 02:21:33;;;;;;;8.50;4.78;;;;;;;3.10;51.57;100778.34;4990688;28;20043;-74
2021/01/08 02:24:05;;;;;;;9.65;5.53;;;;;;;3.11;51.51;100779.22;4984366;28;20051;-75
2021/01/08 02:26:34;;;;;;;9.68;5.65;;;;;;;3.09;51.53;100776.59;4991944;28;20371;-74
2021/01/08 02:29:01;;;;;;;9.65;5.63;;;;;;;3.11;51.44;100784.63;4991758;28;20804;-74
2021/01/08 02:31:29;;;;;;;8.82;4.88;;;;;;;3.10;51.36;100781.03;4992357;28;20405;-74
2021/01/08 02:33:58;;;;;;;8.45;5.30;;;;;;;3.10;51.08;100778.34;4996986;28;20046;-74
2021/01/08 02:36:27;;;;;;;7.10;4.57;;;;;;;3.12;51.47;100780.97;4989512;28;20046;-74
2021/01/08 02:38:55;;;;;;;7.10;3.90;;;;;;;3.11;51.23;100782.78;4987947;28;20104;-74
2021/01/08 02:41:25;;;;;;;7.75;4.10;;;;;;;3.12;51.48;100779.13;4985781;28;20050;-74
2021/01/08 02:43:54;;;;;;;7.18;4.22;;;;;;;3.11;51.42;100782.78;4992240;28;20045;-74
2021/01/08 02:46:22;;;;;;;7.38;4.13;;;;;;;3.11;51.43;100781.91;4991828;28;20043;-74
2021/01/08 02:48:49;;;;;;;6.88;3.85;;;;;;;3.11;51.40;100779.22;4985662;28;20126;-74
2021/01/08 02:51:17;;;;;;;5.95;3.30;;;;;;;3.10;51.31;100794.53;4990776;28;20108;-74
2021/01/08 02:53:44;;;;;;;6.57;3.67;;;;;;;3.10;51.41;100790.97;4992978;28;20089;-73
2021/01/08 02:56:15;;;;;;;5.75;3.28;;;;;;;3.12;51.23;100795.34;4991021;28;20036;-74
2021/01/08 02:58:44;;;;;;;6.90;3.75;;;;;;;3.11;51.44;100799.00;4990807;28;20053;-73
2021/01/08 03:01:14;;;;;;;5.70;3.35;;;;;;;3.12;51.47;100802.56;4985393;28;20042;-74
2021/01/08 03:03:42;;;;;;;6.63;3.72;;;;;;;3.10;51.41;100802.66;4991645;28;20070;-74
2021/01/08 03:06:14;;;;;;;7.28;3.83;;;;;;;3.11;51.57;100800.81;4992347;28;20089;-74
2021/01/08 03:08:41;;;;;;;6.25;3.53;;;;;;;3.11;51.20;100806.22;4991141;28;20140;-74
2021/01/08 03:11:10;;;;;;;5.97;3.03;;;;;;;3.13;51.81;100805.16;5005706;28;20042;-74
2021/01/08 03:13:39;;;;;;;6.43;3.55;;;;;;;3.14;51.65;100803.34;4984138;28;20055;-74
2021/01/08 03:16:07;;;;;;;6.05;3.72;;;;;;;3.14;51.51;100804.22;4990629;28;20064;-74
2021/01/08 03:18:36;;;;;;;6.65;3.40;;;;;;;3.16;51.57;100802.31;4992804;28;20093;-74
2021/01/08 03:21:03;;;;;;;6.40;3.58;;;;;;;3.15;51.52;100803.25;4994915;28;20454;-74
2021/01/08 03:23:31;;;;;;;6.32;3.22;;;;;;;3.17;51.54;100805.88;4990473;28;20046;-74
2021/01/08 03:25:58;;;;;;;5.50;3.22;;;;;;;3.17;51.64;100795.06;4991287;28;20077;-74
2021/01/08 03:28:25;;;;;;;5.95;3.33;;;;;;;3.17;51.38;100798.66;4983769;28;20050;-74
2021/01/08 03:30:53;;;;;;;5.55;3.38;;;;;;;3.18;51.33;100795.00;4979267;28;20486;-74
2021/01/08 03:33:20;;;;;;;4.90;2.70;;;;;;;3.18;51.36;100796.81;4982861;28;20039;-74
2021/01/08 03:35:49;;;;;;;5.68;3.38;;;;;;;3.18;51.35;100803.09;4990832;28;20217;-74
2021/01/08 03:38:16;;;;;;;4.60;2.88;;;;;;;3.17;51.45;100804.06;4989485;28;20037;-74
2021/01/08 03:40:43;;;;;;;5.07;2.92;;;;;;;3.18;51.19;100797.69;4986785;28;20038;-74
2021/01/08 03:43:11;;;;;;;4.25;2.40;;;;;;;3.18;51.35;100805.81;4989793;28;20038;-74
2021/01/08 03:45:39;;;;;;;5.35;2.90;;;;;;;3.19;51.41;100812.09;4985239;28;20046;-74
2021/01/08 03:48:06;;;;;;;4.30;2.50;;;;;;;3.18;51.30;100808.50;4990602;28;20050;-74
2021/01/08 03:50:34;;;;;;;5.05;3.10;;;;;;;3.17;51.52;100812.16;4982119;28;20108;-74
2021/01/08 03:53:02;;;;;;;5.70;2.85;;;;;;;3.18;51.43;100818.44;4991041;28;20053;-73
2021/01/08 03:55:30;;;;;;;5.80;3.40;;;;;;;3.17;51.36;100825.69;4991030;28;20050;-74
2021/01/08 03:57:57;;;;;;;5.40;3.20;;;;;;;3.16;51.21;100818.53;4989029;28;20437;-74
2021/01/08 04:00:24;;;;;;;4.10;2.67;;;;;;;3.16;51.25;100813.13;4990229;28;20042;-74
2021/01/08 04:02:51;;;;;;;4.93;2.70;;;;;;;3.16;51.44;100817.66;4983815;28;20465;-74
2021/01/08 04:05:19;;;;;;;4.60;2.70;;;;;;;3.16;51.36;100815.81;4990427;28;20130;-74
2021/01/08 04:07:46;;;;;;;6.15;3.45;;;;;;;3.17;51.16;100822.97;4989952;28;20897;-74
2021/01/08 04:10:16;;;;;;;5.57;3.40;;;;;;;3.16;51.34;100818.53;4985156;28;20100;-74
2021/01/08 04:12:43;;;;;;;5.63;3.15;;;;;;;3.16;51.15;100820.34;4990818;28;20525;-74
2021/01/08 04:15:10;;;;;;;5.72;3.47;;;;;;;3.16;51.30;100823.06;4985287;28;20050;-74
2021/01/08 04:17:38;;;;;;;5.30;2.95;;;;;;;3.16;51.34;100825.75;4985004;28;20068;-74
2021/01/08 04:20:07;;;;;;;5.55;3.17;;;;;;;3.16;51.29;100823.06;4988889;28;20058;-74
2021/01/08 04:22:35;;;;;;;5.20;3.10;;;;;;;3.16;51.62;100820.34;4989570;28;20042;-74
2021/01/08 04:25:03;;;;;;;4.75;2.65;;;;;;;3.15;51.51;100822.19;4989758;28;20053;-74
2021/01/08 04:27:32;;;;;;;5.22;2.97;;;;;;;3.15;51.32;100824.88;4987022;28;20053;-73
2021/01/08 04:30:00;;;;;;;4.97;3.00;;;;;;;3.15;51.44;100819.47;4987406;28;20413;-74
2021/01/08 04:32:27;;;;;;;5.60;2.90;;;;;;;3.17;51.44;100827.50;4988122;28;20121;-73
2021/01/08 04:34:54;;;;;;;5.03;2.92;;;;;;;3.17;51.66;100827.50;4988546;28;20457;-74
2021/01/08 04:37:21;;;;;;;5.80;3.00;;;;;;;3.18;51.94;100834.66;4983824;28;20120;-74
2021/01/08 04:39:49;;;;;;;5.80;3.28;;;;;;;3.19;51.56;100823.75;4988487;28;20045;-74
2021/01/08 04:42:16;;;;;;;5.80;3.28;;;;;;;3.20;51.51;100827.34;4989087;28;20042;-74
2021/01/08 04:44:44;;;;;;;4.63;2.50;;;;;;;3.21;51.70;100827.22;4988585;28;20052;-74
2021/01/08 04:47:14;;;;;;;4.90;2.75;;;;;;;3.22;51.91;100826.28;4990570;28;20034;-74
2021/01/08 04:49:42;;;;;;;5.20;3.00;;;;;;;3.22;51.56;100831.69;4986935;28;20105;-74
2021/01/08 04:52:11;;;;;;;5.10;3.08;;;;;;;3.22;51.49;100826.28;4990415;28;20556;-74
2021/01/08 04:54:41;;;;;;;4.70;2.78;;;;;;;3.25;51.54;100830.66;4989906;28;20121;-74
2021/01/08 04:57:11;;;;;;;5.25;3.28;;;;;;;3.23;51.54;100830.72;4990826;28;20038;-74
2021/01/08 04:59:39;;;;;;;4.43;2.55;;;;;;;3.23;51.64;100824.44;4989966;28;20064;-74
2021/01/08 05:02:08;;;;;;;5.05;2.83;;;;;;;3.23;51.71;100828.03;4992196;28;20050;-74
2021/01/08 05:04:35;;;;;;;5.03;3.00;;;;;;;3.24;51.55;100832.47;4991034;28;20042;-74
2021/01/08 05:07:03;;;;;;;5.15;2.90;;;;;;;3.24;51.49;100831.59;4993746;28;20713;-74
2021/01/08 05:09:30;;;;;;;4.63;2.60;;;;;;;3.24;51.76;100834.31;4990057;28;20045;-74
2021/01/08 05:11:57;;;;;;;5.32;2.88;;;;;;;3.24;51.24;100831.59;4985187;28;20430;-74
2021/01/08 05:14:27;;;;;;;6.13;3.33;;;;;;;3.24;51.15;100829.78;4993958;28;20046;-73
2021/01/08 05:16:55;;;;;;;5.70;3.05;;;;;;;3.24;51.37;100828.91;4993047;28;20038;-74
2021/01/08 05:19:24;;;;;;;6.22;3.00;;;;;;;3.25;51.60;100836.94;4984984;28;20494;-74
2021/01/08 05:21:53;;;;;;;4.30;2.55;;;;;;;3.26;51.70;100843.22;4994653;28;20042;-74
2021/01/08 05:24:23;;;;;;;4.65;2.90;;;;;;;3.25;51.78;100838.75;4993322;28;20070;-74
2021/01/08 05:26:50;;;;;;;5.28;3.22;;;;;;;3.23;51.63;100841.53;4992392;28;20052;-74
2021/01/08 05:29:18;;;;;;;5.72;3.22;;;;;;;3.24;51.67;100848.69;4985483;28;20084;-74
2021/01/08 05:31:47;;;;;;;4.55;2.78;;;;;;;3.25;51.59;100846.88;4983715;28;20046;-74
2021/01/08 05:34:25;;;;;;;5.28;3.22;;;;;;;3.26;51.72;100849.50;4994547;28;20073;-74
2021/01/08 05:36:54;;;;;;;4.85;2.97;;;;;;;3.25;51.65;100846.88;4989059;28;20132;-73
2021/01/08 05:39:23;;;;;;;5.78;3.15;;;;;;;3.25;51.47;100845.03;4989551;28;20050;-74
2021/01/08 05:41:50;;;;;;;5.10;2.95;;;;;;;3.25;51.53;100849.56;4982082;28;20125;-73
2021/01/08 05:44:19;;;;;;;4.90;2.95;;;;;;;3.25;51.39;100847.75;4991036;28;20045;-73
2021/01/08 05:46:48;;;;;;;5.13;2.88;;;;;;;3.25;51.67;100846.88;4999674;28;20374;-72
2021/01/08 05:49:17;;;;;;;5.32;2.90;;;;;;;3.27;51.24;100847.66;4991236;28;20525;-74
2021/01/08 05:51:46;;;;;;;5.20;3.50;;;;;;;3.26;51.71;100846.78;4993249;28;20064;-74
2021/01/08 05:54:14;;;;;;;5.63;3.40;;;;;;;3.27;51.50;100850.38;4993136;28;20489;-73
2021/01/08 05:56:42;;;;;;;5.50;3.47;;;;;;;3.27;51.51;100847.66;4986981;28;20089;-73
2021/01/08 05:59:09;;;;;;;6.05;3.42;;;;;;;3.26;51.47;100843.22;4988299;28;20039;-74
2021/01/08 06:01:38;;;;;;;6.03;3.88;;;;;;;3.27;51.39;100850.38;4993181;28;20039;-73
2021/01/08 06:04:09;;;;;;;5.82;3.13;;;;;;;3.28;51.57;100869.22;4990748;28;20046;-74
2021/01/08 06:06:40;;;;;;;5.15;3.13;;;;;;;3.28;51.74;100858.41;4988450;28;20039;-73
2021/01/08 06:09:13;;;;;;;5.90;3.72;;;;;;;3.27;51.60;100855.78;4990854;28;20038;-73
2021/01/08 06:11:43;;;;;;;6.25;4.00;;;;;;;3.27;51.44;100858.47;4995794;28;20042;-73
2021/01/08 06:14:12;;;;;;;5.72;3.03;;;;;;;3.27;51.33;100863.88;4993358;28;20050;-73
2021/01/08 06:16:43;;;;;;;5.47;3.38;;;;;;;3.28;51.69;100868.34;4995076;28;20057;-74
2021/01/08 06:19:13;;;;;;;6.03;3.33;;;;;;;3.28;51.52;100862.94;4994288;28;20047;-73
2021/01/08 06:21:42;;;;;;;7.05;3.67;;;;;;;3.29;51.83;100864.66;4994956;28;20038;-73
2021/01/08 06:24:14;;;;;;;6.40;3.60;;;;;;;3.30;51.71;100861.00;5008290;28;20050;-75
2021/01/08 06:26:45;;;;;;;6.65;3.50;;;;;;;3.26;51.62;100863.00;4988177;28;20109;-74
2021/01/08 06:29:18;;;;;;;5.90;3.58;;;;;;;3.30;51.99;100864.56;4985519;28;20030;-73
2021/01/08 06:31:48;;;;;;;6.25;3.42;;;;;;;3.27;51.65;100875.56;4989925;28;20459;-73
2021/01/08 06:34:22;;;;;;;6.03;3.25;;;;;;;3.31;51.76;100881.66;5000504;28;20046;-73
2021/01/08 06:37:03;;;;;;;5.82;3.47;;;;;;;3.31;51.76;100879.84;4994181;28;20352;-73
2021/01/08 06:39:36;;;;;;;7.63;3.60;;;;;;;3.30;51.82;100883.50;4993184;28;20050;-73
2021/01/08 06:42:05;;;;;;;7.85;4.10;;;;;;;3.28;51.82;100881.84;4998423;28;20379;-73
2021/01/08 06:44:33;;;;;;;6.72;3.35;;;;;;;3.29;51.68;100881.75;4987567;28;20038;-73
2021/01/08 06:47:02;;;;;;;6.28;3.65;;;;;;;3.31;51.17;100889.78;4993465;28;20066;-72
2021/01/08 06:49:31;;;;;;;7.50;4.07;;;;;;;3.30;51.48;100894.31;4993134;28;20061;-73
2021/01/08 06:52:00;;;;;;;6.90;3.72;;;;;;;3.29;51.67;100889.84;4999784;28;20044;-73
2021/01/08 06:54:29;;;;;;;7.25;4.13;;;;;;;3.29;51.41;100889.84;4987701;28;20063;-73
2021/01/08 06:57:00;;;;;;;7.25;4.13;;;;;;;3.31;51.42;100896.06;4992578;28;20046;-74
2021/01/08 06:59:32;;;;;;;7.25;3.97;;;;;;;3.29;51.71;100899.78;4992852;28;20133;-74
2021/01/08 07:02:04;;;;;;;8.85;4.47;;;;;;;3.29;51.66;100899.78;4993631;28;20053;-74
2021/01/08 07:04:32;;;;;;;9.73;4.30;;;;;;;3.28;51.64;100904.34;4994031;28;20065;-74
2021/01/08 07:07:03;;;;;;;7.72;3.95;;;;;;;3.29;51.71;100913.31;4976641;28;20548;-73
2021/01/08 07:09:32;;;;;;;7.88;3.95;;;;;;;3.28;51.46;100914.28;4993599;28;20058;-74
2021/01/08 07:12:02;;;;;;;8.07;4.13;;;;;;;3.28;51.57;100917.88;5008698;28;20509;-74
2021/01/08 07:14:29;;;;;;;7.47;3.72;;;;;;;3.27;51.58;100918.81;4994039;28;20042;-74
2021/01/08 07:16:58;;;;;;;7.47;3.88;;;;;;;3.29;51.71;100926.81;4991525;28;20045;-73
2021/01/08 07:19:28;;;;;;;7.15;3.80;;;;;;;3.28;51.45;100930.50;4981914;28;20120;-73
2021/01/08 07:21:57;;;;;;;8.50;4.57;;;;;;;3.27;51.64;100932.34;4993331;28;20044;-73
2021/01/08 07:24:26;;;;;;;7.85;4.20;;;;;;;3.26;51.33;100927.88;4993095;28;20116;-74
2021/01/08 07:26:53;;;;;;;7.45;4.10;;;;;;;3.26;51.50;100932.41;5007055;28;20125;-73
2021/01/08 07:29:28;;;;;;;7.32;3.70;;;;;;;3.26;51.67;100936.00;4992171;28;20054;-74
2021/01/08 07:31:56;;;;;;;8.32;4.18;;;;;;;3.24;51.70;100940.59;4993497;28;20509;-73
2021/01/08 07:34:34;;;;;;;7.68;3.95;;;;;;;3.26;51.82;100941.41;4992795;28;20077;-73
2021/01/08 07:37:02;;;;;;;7.60;3.90;;;;;;;3.23;51.62;100954.19;4987628;28;20053;-73
2021/01/08 07:39:37;;;;;;;8.63;4.07;;;;;;;3.26;51.83;100957.63;4992757;28;20364;-73
2021/01/08 07:42:33;;;;;;;8.60;4.15;;;;;;;3.26;51.83;100960.34;4993455;28;20088;-73
2021/01/08 07:45:02;;;;;;;8.15;4.00;;;;;;;3.23;51.61;100965.00;4993804;28;20042;-73
2021/01/08 07:47:30;;;;;;;8.77;4.05;;;;;;;3.25;51.54;100965.81;4998419;28;20098;-73
2021/01/08 07:50:17;;;;;;;8.70;4.13;;;;;;;3.25;51.84;100966.69;4991123;28;20042;-72
2021/01/08 07:52:45;;;;;;;8.40;4.05;;;;;;;3.23;51.72;100968.59;4989469;28;20053;-72
2021/01/08 07:55:33;;;;;;;8.57;4.03;;;;;;;3.25;51.75;100977.50;4992172;28;20042;-73
2021/01/08 07:58:04;;;;;;;8.82;4.13;;;;;;;3.26;51.88;100981.09;4990219;28;20061;-72
2021/01/08 08:00:34;;;;;;;6.68;3.60;;;;;;;3.26;51.61;100979.25;4991819;28;20048;-71
2021/01/08 08:03:02;;;;;;;7.80;3.92;;;;;;;3.25;51.79;100984.75;4993000;28;20130;-73
2021/01/08 08:05:31;;;;;;;8.27;3.88;;;;;;;3.27;51.66;100990.94;4973620;28;20042;-73
2021/01/08 08:08:01;;;;;;;7.13;3.88;;;;;;;3.28;51.76;100992.69;4978165;28;20057;-73
2021/01/08 08:10:31;;;;;;;7.55;4.30;;;;;;;3.26;51.83;100997.31;4992721;28;20125;-73
2021/01/08 08:12:58;;;;;;;7.30;4.00;;;;;;;3.26;51.42;100997.31;4992680;28;20043;-73
2021/01/08 08:15:25;;;;;;;7.07;3.83;;;;;;;3.26;51.54;101003.59;4989645;28;20058;-72
2021/01/08 08:17:54;;;;;;;7.20;3.15;;;;;;;3.27;51.65;101004.47;4990855;28;20121;-71
2021/01/08 08:20:23;;;;;;;7.00;3.40;;;;;;;3.28;51.70;101012.50;5001918;28;20053;-72
2021/01/08 08:22:53;;;;;;;6.53;3.28;;;;;;;3.27;51.59;101008.03;4985042;28;20410;-73
2021/01/08 08:25:26;;;;;;;6.88;3.20;;;;;;;3.28;51.78;101015.19;4992226;28;20046;-72
2021/01/08 08:27:55;;;;;;;6.25;3.08;;;;;;;3.28;51.75;101020.59;4991568;28;20113;-72
2021/01/08 08:30:25;;;;;;;6.03;3.50;;;;;;;3.28;51.60;101014.31;4987668;28;20070;-72
2021/01/08 08:32:52;;;;;;;6.38;3.17;;;;;;;3.28;51.81;101020.59;4989579;28;20201;-73
2021/01/08 08:35:22;;;;;;;6.50;3.67;;;;;;;3.29;52.04;101016.91;4991335;28;20050;-74
2021/01/08 08:37:51;;;;;;;6.20;3.40;;;;;;;3.31;51.55;101027.66;4988736;28;20104;-72
2021/01/08 08:40:23;;;;;;;7.10;3.53;;;;;;;3.31;51.96;101031.25;4986910;28;20050;-73
2021/01/08 08:42:52;;;;;;;6.00;3.35;;;;;;;3.30;51.84;101032.19;4982337;28;20116;-73
2021/01/08 08:45:24;;;;;;;6.75;3.42;;;;;;;3.31;51.77;101036.66;4987048;28;20050;-73
2021/01/08 08:47:53;;;;;;;5.63;3.30;;;;;;;3.31;51.91;101038.47;4981613;28;20042;-73
2021/01/08 08:50:23;;;;;;;8.95;3.47;;;;;;;3.33;51.85;101040.16;4990906;28;20548;-72
2021/01/08 08:52:51;;;;;;;6.30;3.22;;;;;;;3.32;51.67;101040.22;4991048;28;20042;-73
2021/01/08 08:55:26;;;;;;;6.70;3.30;;;;;;;3.35;51.93;101040.06;4987450;28;20049;-72
2021/01/08 08:58:07;;;;;;;7.05;3.60;;;;;;;3.35;52.01;101047.31;4991831;28;20442;-72
2021/01/08 09:00:36;;;;;;;5.82;3.10;;;;;;;3.33;51.80;101042.84;4997173;28;20042;-73
2021/01/08 09:03:16;;;;;;;6.85;3.47;;;;;;;3.35;52.19;101048.19;4989480;28;20351;-73
2021/01/08 09:05:45;;;;;;;6.28;3.25;;;;;;;3.34;52.00;101046.44;4985632;28;20042;-73
2021/01/08 09:08:18;;;;;;;6.15;3.20;;;;;;;3.35;51.77;101048.19;4990011;28;20517;-72
2021/01/08 09:10:51;;;;;;;;;;;;;;;3.13;52.68;101050.25;4988967;28;20406;-73
2021/01/08 09:13:24;;;;;;;6.75;3.05;;;;;;;3.30;51.96;101047.53;4989226;28;19922;-72
2021/01/08 09:16:03;;;;;;;5.50;2.83;;;;;;;3.35;52.34;101048.19;4987669;28;20042;-73
2021/01/08 09:18:43;;;;;;;5.88;3.22;;;;;;;3.38;52.09;101052.53;5003804;28;20053;-74
2021/01/08 09:21:19;;;;;;;6.80;3.10;;;;;;;3.38;52.22;101053.41;5000510;28;20393;-72
2021/01/08 09:23:48;;;;;;;7.32;3.47;;;;;;;3.38;51.72;101055.25;4988350;28;20124;-72
2021/01/08 09:26:37;;;;;;;6.80;3.40;;;;;;;3.38;52.09;101052.53;4985201;28;20050;-73
2021/01/08 09:29:04;;;;;;;6.35;3.58;;;;;;;3.40;52.10;101064.16;4978118;28;20052;-72
2021/01/08 09:31:39;;;;;;;7.20;3.58;;;;;;;3.42;52.36;101060.41;4991020;28;20053;-73
2021/01/08 09:34:08;;;;;;;5.72;3.13;;;;;;;3.41;51.87;101065.91;5000245;28;20034;-73
2021/01/08 09:36:43;;;;;;;6.80;3.35;;;;;;;3.41;51.97;101064.06;4989392;28;20049;-73
2021/01/08 09:39:11;;;;;;;7.18;3.38;;;;;;;3.44;51.96;101069.34;4989073;28;20070;-72
2021/01/08 09:41:40;;;;;;;7.35;3.88;;;;;;;3.46;52.00;101070.09;4990838;28;20401;-72
2021/01/08 09:44:09;;;;;;;5.53;2.90;;;;;;;3.47;51.96;101076.38;4990952;28;20093;-72
2021/01/08 09:46:51;;;;;;;5.55;3.10;;;;;;;3.49;52.33;101079.88;4988327;28;20042;-71
2021/01/08 09:49:19;;;;;;;7.25;3.95;;;;;;;3.46;52.29;101082.75;4990390;28;20050;-72
2021/01/08 09:51:48;;;;;;;6.35;3.38;;;;;;;3.50;52.21;101082.53;4992642;28;20133;-72
2021/01/08 09:54:15;;;;;;;6.82;3.80;;;;;;;3.49;51.92;101088.88;5007818;28;20479;-71
2021/01/08 09:56:52;;;;;;;6.07;3.20;;;;;;;3.54;52.21;101092.19;4995093;28;20052;-71
2021/01/08 09:59:19;;;;;;;5.80;3.13;;;;;;;3.52;52.03;101090.56;4994074;28;20449;-73
2021/01/08 10:01:54;;;;;;;5.70;3.13;;;;;;;3.53;52.25;101093.19;4988096;28;20046;-73
2021/01/08 10:04:28;;;;;;;6.43;3.42;;;;;;;3.56;52.19;101094.81;4994749;28;20069;-71
2021/01/08 10:06:58;;;;;;;5.95;3.15;;;;;;;3.54;52.20;101096.72;4993380;28;20046;-72
2021/01/08 10:09:25;;;;;;;6.50;3.38;;;;;;;3.55;52.33;101102.06;4995041;28;20054;-72
2021/01/08 10:11:59;;;;;;;6.50;3.45;;;;;;;3.59;52.17;101103.66;4987322;28;20047;-72
2021/01/08 10:14:32;;;;;;;6.30;3.17;;;;;;;3.58;52.04;101099.22;4995930;28;20405;-74
2021/01/08 10:17:09;;;;;;;7.03;3.57;;;;;;;3.58;52.46;101106.44;4987001;28;20042;-73
2021/01/08 10:19:38;;;;;;;6.32;3.28;;;;;;;3.59;52.09;101102.78;4992871;28;20485;-73
2021/01/08 10:22:10;;;;;;;4.95;2.75;;;;;;;3.62;52.12;101102.63;4988725;28;20481;-74
2021/01/08 10:25:10;;;;;;;6.90;3.22;;;;;;;3.61;52.41;101104.50;4992906;28;20521;-72
2021/01/08 10:27:38;;;;;;;6.88;3.45;;;;;;;3.61;52.04;101103.63;4991599;28;20512;-72
2021/01/08 10:30:06;;;;;;;5.25;2.95;;;;;;;3.62;52.17;101106.22;4990984;28;20042;-73
2021/01/08 10:32:47;;;;;;;6.93;3.80;;;;;;;3.65;52.35;101102.50;4990994;28;20069;-73
2021/01/08 10:36:39;;;;;;;5.10;2.95;;;;;;;3.60;52.34;101102.72;4958285;28;20055;-74
2021/01/08 10:39:07;;;;;;;5.32;2.88;;;;;;;3.62;52.09;101103.50;4873942;29;20067;-73
2021/01/08 10:41:36;;;;;;;5.90;3.15;;;;;;;3.63;52.05;101102.56;4886166;29;20069;-75
2021/01/08 10:44:03;;;;;;;6.50;3.47;;;;;;;3.65;52.30;101105.19;4887261;29;20057;-73
2021/01/08 10:46:31;;;;;;;4.82;2.67;;;;;;;3.66;51.94;101102.41;4895086;29;20575;-73
2021/01/08 10:48:58;;;;;;;6.00;3.35;;;;;;;3.67;52.32;101097.88;4890796;29;20053;-71
2021/01/08 10:51:53;;;;;;;5.55;3.17;;;;;;;3.69;52.40;101102.25;4894301;29;20048;-71
2021/01/08 10:54:22;;;;;;;5.63;2.95;;;;;;;3.67;52.08;101106.00;4874652;29;20509;-73
2021/01/08 10:56:50;;;;;;;5.97;3.30;;;;;;;3.70;52.25;101114.81;4882959;29;20132;-72
2021/01/08 10:59:17;;;;;;;5.40;3.03;;;;;;;3.69;52.30;101110.38;4877218;29;20135;-71
2021/01/08 11:01:45;;;;;;;5.93;3.17;;;;;;;3.73;52.53;101107.47;4887753;29;20063;-74
2021/01/08 11:04:12;;;;;;;6.45;3.42;;;;;;;3.73;52.16;101115.59;4888605;29;20052;-73
2021/01/08 11:06:40;;;;;;;6.82;3.35;;;;;;;3.74;52.35;101114.66;4914927;29;20074;-73
2021/01/08 11:09:07;;;;;;;7.07;3.75;;;;;;;3.75;52.12;101114.56;4915459;29;20079;-73
2021/01/08 11:11:37;;;;;;;5.35;3.20;;;;;;;3.76;52.40;101110.91;4930945;29;20047;-74
2021/01/08 11:14:04;;;;;;;8.10;4.07;;;;;;;3.76;52.09;101105.50;4938318;28;20050;-73
2021/01/08 11:16:32;;;;;;;5.75;3.10;;;;;;;3.77;52.16;101112.66;4993377;28;20038;-72
2021/01/08 11:19:03;;;;;;;6.28;3.53;;;;;;;3.79;52.42;101110.72;4992451;28;20105;-71
2021/01/08 11:21:31;;;;;;;6.95;3.72;;;;;;;3.78;52.40;101109.00;4991618;28;20138;-72
2021/01/08 11:23:58;;;;;;;6.05;3.40;;;;;;;3.80;52.34;101112.47;4992795;28;20136;-72
2021/01/08 11:26:26;;;;;;;6.10;3.20;;;;;;;3.82;52.10;101112.41;4992664;28;20070;-72
2021/01/08 11:28:54;;;;;;;6.05;3.40;;;;;;;3.83;52.23;101103.31;4991168;28;20046;-72
2021/01/08 11:31:21;;;;;;;7.13;3.60;;;;;;;3.83;52.37;101101.50;4991287;28;20093;-72
2021/01/08 11:33:48;;;;;;;6.47;3.75;;;;;;;3.84;52.19;101108.66;4988079;28;20400;-72
2021/01/08 11:36:18;;;;;;;5.53;3.20;;;;;;;3.87;52.40;101108.47;4990824;28;20039;-72
2021/01/08 11:38:46;;;;;;;6.13;3.17;;;;;;;3.87;52.24;101104.91;4992654;28;20046;-72
2021/01/08 11:41:13;;;;;;;13.57;3.90;;;;;;;3.87;52.43;101100.34;4990296;28;20069;-71
2021/01/08 11:43:41;;;;;;;5.95;3.40;;;;;;;3.88;52.23;101107.53;4990300;28;20077;-72
2021/01/08 11:46:14;;;;;;;6.78;3.45;;;;;;;3.92;52.35;101111.81;4991363;28;20038;-71